Lena — 5BYF3 — position and weather

sailwx.info

Track history (hours):
 
Tides and Currents Weather Stations Pressure Air Temp Water Temp Dewpoint Dewpoint Depression Visibility Wind Speed Wind Dir Waves Ship Positions

Lena

Last reported at 2017-Sep-16 10:38 UTC. Time now 2017-Sep-24 14:21 UTC.
Position N 32°03' W 078°57'.
Warning: this ship's position is 8 days out of date.

Length 133 m; draft 8.2 m.

Type: Cargo ship. MMSI: 210740000.

Date/timePositionNaut miles runAvg speedWind from/ knotsBaromVisibWave heightAir tempDewpointWater temp
2017-Sep-16 10:38N 32°03' W 078°57'320 9.3
2017-Sep-15 00:05N 26°44' W 079°26'117.2
2017-Sep-15 00:00N 26°42' W 079°26'1416.8
2017-Sep-14 23:09N 26°28' W 079°27'414.9
2017-Sep-14 22:52N 26°24' W 079°27'614.7
2017-Sep-14 22:29N 26°18' W 079°27'714.7
2017-Sep-14 22:00N 26°11' W 079°27'1415.1
2017-Sep-14 21:03N 25°57' W 079°27'116.0
2017-Sep-14 21:00N 25°56' W 079°27'816.2
2017-Sep-14 20:30N 25°48' W 079°28'916.5
2017-Sep-14 19:59N 25°39' W 079°28'816.4
2017-Sep-14 19:30N 25°31' W 079°28'  
Track history (hours):
 
Tides and Currents Weather Stations Pressure Air Temp Water Temp Dewpoint Dewpoint Depression Visibility Wind Speed Wind Dir Waves Ship Positions

Lena

Last reported at 2017-Sep-16 10:38 UTC. Time now 2017-Sep-24 14:21 UTC.
Position N 32°03' W 078°57'.
Warning: this ship's position is 8 days out of date.

Length 133 m; draft 8.2 m.

Type: Cargo ship. MMSI: 210740000.

Date/timePositionNaut miles runAvg speedWind from/ knotsBaromVisibWave heightAir tempDewpointWater temp
2017-Sep-16 10:38N 32°03' W 078°57'320 9.3
2017-Sep-15 00:05N 26°44' W 079°26'117.2
2017-Sep-15 00:00N 26°42' W 079°26'1416.8
2017-Sep-14 23:09N 26°28' W 079°27'414.9
2017-Sep-14 22:52N 26°24' W 079°27'614.7
2017-Sep-14 22:29N 26°18' W 079°27'714.7
2017-Sep-14 22:00N 26°11' W 079°27'1415.1
2017-Sep-14 21:03N 25°57' W 079°27'116.0
2017-Sep-14 21:00N 25°56' W 079°27'816.2
2017-Sep-14 20:30N 25°48' W 079°28'916.5
2017-Sep-14 19:59N 25°39' W 079°28'816.4
2017-Sep-14 19:30N 25°31' W 079°28'  

Dump ship's entire track history